sensor_id;sensor_type;location;lat;lon;timestamp;pressure;altitude;pressure_sealevel;temperature;humidity
30897;BME280;64229;52.246;21.054;2023-06-14T00:00:10;100720.81;;;12.33;100.00
30897;BME280;64229;52.246;21.054;2023-06-14T00:02:38;100737.94;;;12.42;100.00
30897;BME280;64229;52.246;21.054;2023-06-14T00:05:04;100737.44;;;12.45;100.00
30897;BME280;64229;52.246;21.054;2023-06-14T00:07:40;100741.72;;;12.46;100.00
30897;BME280;64229;52.246;21.054;2023-06-14T00:10:12;100735.28;;;12.42;100.00
30897;BME280;64229;52.246;21.054;2023-06-14T00:12:38;100736.34;;;12.41;100.00
30897;BME280;64229;52.246;21.054;2023-06-14T00:15:04;100736.09;;;12.37;100.00
30897;BME280;64229;52.246;21.054;2023-06-14T00:17:30;100736.34;;;12.41;100.00
30897;BME280;64229;52.246;21.054;2023-06-14T00:19:57;100735.81;;;12.39;100.00
30897;BME280;64229;52.246;21.054;2023-06-14T00:22:23;100720.56;;;12.34;100.00
30897;BME280;64229;52.246;21.054;2023-06-14T00:24:53;100730.19;;;12.35;100.00
30897;BME280;64229;52.246;21.054;2023-06-14T00:27:19;100729.94;;;12.37;100.00
30897;BME280;64229;52.246;21.054;2023-06-14T00:29:44;100723.25;;;12.34;100.00
30897;BME280;64229;52.246;21.054;2023-06-14T00:32:10;100721.34;;;12.30;100.00
30897;BME280;64229;52.246;21.054;2023-06-14T00:34:35;100722.94;;;12.31;100.00
30897;BME280;64229;52.246;21.054;2023-06-14T00:37:01;100721.34;;;12.30;100.00
30897;BME280;64229;52.246;21.054;2023-06-14T00:39:27;100701.25;;;12.22;100.00
30897;BME280;64229;52.246;21.054;2023-06-14T00:41:52;100695.09;;;12.16;100.00
30897;BME280;64229;52.246;21.054;2023-06-14T00:44:18;100712.78;;;12.33;100.00
30897;BME280;64229;52.246;21.054;2023-06-14T00:46:45;100718.66;;;12.30;100.00
30897;BME280;64229;52.246;21.054;2023-06-14T00:49:12;100710.63;;;12.30;100.00
30897;BME280;64229;52.246;21.054;2023-06-14T00:51:37;100715.19;;;12.29;100.00
30897;BME280;64229;52.246;21.054;2023-06-14T00:54:04;100719.72;;;12.29;100.00
30897;BME280;64229;52.246;21.054;2023-06-14T00:56:30;100713.06;;;12.26;100.00
30897;BME280;64229;52.246;21.054;2023-06-14T00:58:56;100722.94;;;12.31;100.00
30897;BME280;64229;52.246;21.054;2023-06-14T01:01:21;100711.97;;;12.32;100.00
30897;BME280;64229;52.246;21.054;2023-06-14T01:03:47;100715.75;;;12.36;100.00
30897;BME280;64229;52.246;21.054;2023-06-14T01:06:23;100715.47;;;12.38;100.00
30897;BME280;64229;52.246;21.054;2023-06-14T01:09:06;100720.28;;;12.36;100.00
30897;BME280;64229;52.246;21.054;2023-06-14T01:11:43;100720.28;;;12.31;100.00
30897;BME280;64229;52.246;21.054;2023-06-14T01:14:12;100725.09;;;12.29;100.00
30897;BME280;64229;52.246;21.054;2023-06-14T01:16:38;100711.44;;;12.25;100.00
30897;BME280;64229;52.246;21.054;2023-06-14T01:19:05;100718.66;;;12.30;100.00
30897;BME280;64229;52.246;21.054;2023-06-14T01:21:31;100723.75;;;12.31;100.00
30897;BME280;64229;52.246;21.054;2023-06-14T01:24:06;100705.25;;;12.20;100.00
30897;BME280;64229;52.246;21.054;2023-06-14T01:26:32;100727.78;;;12.34;100.00
30897;BME280;64229;52.246;21.054;2023-06-14T01:28:58;100721.06;;;12.31;100.00
30897;BME280;64229;52.246;21.054;2023-06-14T01:31:24;100716.53;;;12.32;100.00
30897;BME280;64229;52.246;21.054;2023-06-14T01:33:51;100715.44;;;12.33;100.00
30897;BME280;64229;52.246;21.054;2023-06-14T01:36:19;100713.56;;;12.33;100.00
30897;BME280;64229;52.246;21.054;2023-06-14T01:38:46;100716.53;;;12.37;100.00
30897;BME280;64229;52.246;21.054;2023-06-14T01:41:14;100706.63;;;12.37;100.00
30897;BME280;64229;52.246;21.054;2023-06-14T01:43:41;100709.56;;;12.41;100.00
30897;BME280;64229;52.246;21.054;2023-06-14T01:46:08;100707.69;;;12.41;100.00
30897;BME280;64229;52.246;21.054;2023-06-14T01:48:34;100707.44;;;12.43;100.00
30897;BME280;64229;52.246;21.054;2023-06-14T01:50:59;100704.75;;;12.43;100.00
30897;BME280;64229;52.246;21.054;2023-06-14T01:53:25;100705.31;;;12.45;100.00
30897;BME280;64229;52.246;21.054;2023-06-14T01:55:50;100703.16;;;12.47;100.00
30897;BME280;64229;52.246;21.054;2023-06-14T01:58:19;100694.06;;;12.48;100.00
30897;BME280;64229;52.246;21.054;2023-06-14T02:00:44;100693.00;;;12.49;100.00
30897;BME280;64229;52.246;21.054;2023-06-14T02:03:11;100691.94;;;12.45;100.00
30897;BME280;64229;52.246;21.054;2023-06-14T02:05:37;100697.81;;;12.47;100.00
30897;BME280;64229;52.246;21.054;2023-06-14T02:08:04;100687.91;;;12.48;100.00
30897;BME280;64229;52.246;21.054;2023-06-14T02:10:30;100700.22;;;12.54;100.00
30897;BME280;64229;52.246;21.054;2023-06-14T02:12:55;100700.22;;;12.54;100.00
30897;BME280;64229;52.246;21.054;2023-06-14T02:15:20;100690.84;;;12.46;100.00
30897;BME280;64229;52.246;21.054;2023-06-14T02:17:47;100699.41;;;12.53;100.00
30897;BME280;64229;52.246;21.054;2023-06-14T02:20:13;100704.75;;;12.53;100.00
30897;BME280;64229;52.246;21.054;2023-06-14T02:22:38;100707.44;;;12.53;100.00
30897;BME280;64229;52.246;21.054;2023-06-14T02:25:04;100688.19;;;12.46;100.00
30897;BME280;64229;52.246;21.054;2023-06-14T02:27:29;100706.66;;;12.58;100.00
30897;BME280;64229;52.246;21.054;2023-06-14T02:29:55;100701.03;;;12.59;100.00
30897;BME280;64229;52.246;21.054;2023-06-14T02:32:20;100706.38;;;12.59;100.00
30897;BME280;64229;52.246;21.054;2023-06-14T02:34:45;100696.22;;;12.56;100.00
30897;BME280;64229;52.246;21.054;2023-06-14T02:37:17;100705.06;;;12.57;100.00
30897;BME280;64229;52.246;21.054;2023-06-14T02:39:43;100701.84;;;12.60;100.00
30897;BME280;64229;52.246;21.054;2023-06-14T02:42:08;100701.56;;;12.61;100.00
30897;BME280;64229;52.246;21.054;2023-06-14T02:44:33;100695.94;;;12.63;100.00
30897;BME280;64229;52.246;21.054;2023-06-14T02:46:59;100692.97;;;12.64;100.00
30897;BME280;64229;52.246;21.054;2023-06-14T02:49:26;100686.28;;;12.62;100.00
30897;BME280;64229;52.246;21.054;2023-06-14T02:51:51;100679.88;;;12.58;100.00
30897;BME280;64229;52.246;21.054;2023-06-14T02:54:16;100687.38;;;12.61;100.00
30897;BME280;64229;52.246;21.054;2023-06-14T02:56:42;100683.63;;;12.62;100.00
30897;BME280;64229;52.246;21.054;2023-06-14T02:59:07;100668.34;;;12.52;100.00
30897;BME280;64229;52.246;21.054;2023-06-14T03:01:34;100690.31;;;12.64;100.00
30897;BME280;64229;52.246;21.054;2023-06-14T03:04:01;100684.69;;;12.61;100.00
30897;BME280;64229;52.246;21.054;2023-06-14T03:06:28;100684.16;;;12.59;100.00
30897;BME280;64229;52.246;21.054;2023-06-14T03:08:55;100694.84;;;12.64;100.00
30897;BME280;64229;52.246;21.054;2023-06-14T03:11:24;100689.78;;;12.62;100.00
30897;BME280;64229;52.246;21.054;2023-06-14T03:13:50;100690.84;;;12.61;100.00
30897;BME280;64229;52.246;21.054;2023-06-14T03:16:17;100691.38;;;12.63;100.00
30897;BME280;64229;52.246;21.054;2023-06-14T03:18:45;100686.84;;;12.59;100.00
30897;BME280;64229;52.246;21.054;2023-06-14T03:21:10;100687.09;;;12.62;100.00
30897;BME280;64229;52.246;21.054;2023-06-14T03:23:36;100691.94;;;12.65;100.00
30897;BME280;64229;52.246;21.054;2023-06-14T03:26:02;100694.34;;;12.67;100.00
30897;BME280;64229;52.246;21.054;2023-06-14T03:28:27;100687.63;;;12.69;100.00
30897;BME280;64229;52.246;21.054;2023-06-14T03:30:52;100678.81;;;12.69;100.00
30897;BME280;64229;52.246;21.054;2023-06-14T03:33:18;100687.09;;;12.72;100.00
30897;BME280;64229;52.246;21.054;2023-06-14T03:35:43;100671.03;;;12.57;100.00
30897;BME280;64229;52.246;21.054;2023-06-14T03:38:08;100686.03;;;12.68;100.00
30897;BME280;64229;52.246;21.054;2023-06-14T03:40:34;100682.56;;;12.68;100.00
30897;BME280;64229;52.246;21.054;2023-06-14T03:42:59;100675.31;;;12.68;100.00
30897;BME280;64229;52.246;21.054;2023-06-14T03:45:25;100679.34;;;12.71;100.00
30897;BME280;64229;52.246;21.054;2023-06-14T03:47:50;100681.19;;;12.75;100.00
30897;BME280;64229;52.246;21.054;2023-06-14T03:50:17;100668.91;;;12.69;100.00
30897;BME280;64229;52.246;21.054;2023-06-14T03:52:44;100652.03;;;12.59;100.00
30897;BME280;64229;52.246;21.054;2023-06-14T03:55:09;100684.69;;;12.81;100.00
30897;BME280;64229;52.246;21.054;2023-06-14T03:57:35;100680.94;;;12.82;100.00
30897;BME280;64229;52.246;21.054;2023-06-14T04:00:01;100688.97;;;12.87;100.00
30897;BME280;64229;52.246;21.054;2023-06-14T04:02:26;100679.84;;;12.83;100.00
30897;BME280;64229;52.246;21.054;2023-06-14T04:04:54;100685.47;;;12.92;100.00
30897;BME280;64229;52.246;21.054;2023-06-14T04:07:20;100693.25;;;12.98;100.00
30897;BME280;64229;52.246;21.054;2023-06-14T04:09:45;100695.09;;;13.03;100.00
30897;BME280;64229;52.246;21.054;2023-06-14T04:12:11;100691.06;;;13.06;100.00
30897;BME280;64229;52.246;21.054;2023-06-14T04:14:37;100693.22;;;13.09;100.00
30897;BME280;64229;52.246;21.054;2023-06-14T04:17:03;100691.88;;;13.11;100.00
30897;BME280;64229;52.246;21.054;2023-06-14T04:19:28;100692.41;;;13.08;100.00
30897;BME280;64229;52.246;21.054;2023-06-14T04:21:53;100696.69;;;13.14;100.00
30897;BME280;64229;52.246;21.054;2023-06-14T04:24:19;100702.84;;;13.15;100.00
30897;BME280;64229;52.246;21.054;2023-06-14T04:26:45;100708.19;;;13.15;100.00
30897;BME280;64229;52.246;21.054;2023-06-14T04:29:13;100705.53;;;13.15;100.00
30897;BME280;64229;52.246;21.054;2023-06-14T04:31:43;100692.66;;;13.17;100.00
30897;BME280;64229;52.246;21.054;2023-06-14T04:34:09;100684.91;;;13.20;100.00
30897;BME280;64229;52.246;21.054;2023-06-14T04:36:41;100691.84;;;13.26;100.00
30897;BME280;64229;52.246;21.054;2023-06-14T04:39:08;100684.34;;;13.28;100.00
30897;BME280;64229;52.246;21.054;2023-06-14T04:41:33;100690.78;;;13.32;100.00
30897;BME280;64229;52.246;21.054;2023-06-14T04:44:01;100677.38;;;13.32;100.00
30897;BME280;64229;52.246;21.054;2023-06-14T04:46:29;100681.63;;;13.39;100.00
30897;BME280;64229;52.246;21.054;2023-06-14T04:48:57;100677.34;;;13.38;100.00
30897;BME280;64229;52.246;21.054;2023-06-14T04:51:23;100687.78;;;13.44;100.00
30897;BME280;64229;52.246;21.054;2023-06-14T04:53:55;100670.66;;;13.35;100.00
30897;BME280;64229;52.246;21.054;2023-06-14T04:56:22;100686.16;;;13.48;100.00
30897;BME280;64229;52.246;21.054;2023-06-14T04:58:47;100695.78;;;13.49;100.00
30897;BME280;64229;52.246;21.054;2023-06-14T05:01:12;100688.31;;;13.51;100.00
30897;BME280;64229;52.246;21.054;2023-06-14T05:03:38;100695.78;;;13.54;100.00
30897;BME280;64229;52.246;21.054;2023-06-14T05:06:03;100701.69;;;13.56;100.00
30897;BME280;64229;52.246;21.054;2023-06-14T05:08:29;100697.94;;;13.52;100.00
30897;BME280;64229;52.246;21.054;2023-06-14T05:10:54;100696.59;;;13.55;100.00
30897;BME280;64229;52.246;21.054;2023-06-14T05:13:20;100710.00;;;13.55;100.00
30897;BME280;64229;52.246;21.054;2023-06-14T05:15:47;100711.03;;;13.59;100.00
30897;BME280;64229;52.246;21.054;2023-06-14T05:18:12;100703.00;;;13.59;100.00
30897;BME280;64229;52.246;21.054;2023-06-14T05:20:38;100712.66;;;13.60;100.00
30897;BME280;64229;52.246;21.054;2023-06-14T05:23:04;100708.91;;;13.61;100.00
30897;BME280;64229;52.246;21.054;2023-06-14T05:25:29;100703.78;;;13.65;100.00
30897;BME280;64229;52.246;21.054;2023-06-14T05:27:55;100717.97;;;13.70;100.00
30897;BME280;64229;52.246;21.054;2023-06-14T05:30:20;100717.97;;;13.70;100.00
30897;BME280;64229;52.246;21.054;2023-06-14T05:32:45;100712.56;;;13.80;100.00
30897;BME280;64229;52.246;21.054;2023-06-14T05:35:11;100705.88;;;13.83;100.00
30897;BME280;64229;52.246;21.054;2023-06-14T05:37:36;100704.25;;;13.82;100.00
30897;BME280;64229;52.246;21.054;2023-06-14T05:40:03;100708.22;;;13.89;100.00
30897;BME280;64229;52.246;21.054;2023-06-14T05:42:32;100703.72;;;13.85;100.00
30897;BME280;64229;52.246;21.054;2023-06-14T05:44:58;100710.41;;;13.87;100.00
30897;BME280;64229;52.246;21.054;2023-06-14T05:47:23;100713.06;;;13.87;100.00
30897;BME280;64229;52.246;21.054;2023-06-14T05:49:48;100685.22;;;13.78;100.00
30897;BME280;64229;52.246;21.054;2023-06-14T05:52:14;100715.16;;;14.01;100.00
30897;BME280;64229;52.246;21.054;2023-06-14T05:54:39;100711.66;;;14.00;100.00
30897;BME280;64229;52.246;21.054;2023-06-14T05:57:05;100714.63;;;13.99;100.00
30897;BME280;64229;52.246;21.054;2023-06-14T05:59:31;100716.78;;;13.97;100.00
30897;BME280;64229;52.246;21.054;2023-06-14T06:01:57;100721.06;;;13.98;100.00
30897;BME280;64229;52.246;21.054;2023-06-14T06:04:23;100731.28;;;13.96;100.00
30897;BME280;64229;52.246;21.054;2023-06-14T06:06:48;100718.69;;;13.96;100.00
30897;BME280;64229;52.246;21.054;2023-06-14T06:09:14;100717.84;;;14.01;100.00
30897;BME280;64229;52.246;21.054;2023-06-14T06:11:40;100716.47;;;14.08;100.00
30897;BME280;64229;52.246;21.054;2023-06-14T06:14:05;100704.06;;;14.12;100.00
30897;BME280;64229;52.246;21.054;2023-06-14T06:16:30;100712.06;;;14.23;100.00
30897;BME280;64229;52.246;21.054;2023-06-14T06:18:56;100698.69;;;14.17;100.00
30897;BME280;64229;52.246;21.054;2023-06-14T06:21:21;100700.25;;;14.24;100.00
30897;BME280;64229;52.246;21.054;2023-06-14T06:23:46;100718.69;;;14.35;100.00
30897;BME280;64229;52.246;21.054;2023-06-14T06:26:12;100690.06;;;14.21;100.00
30897;BME280;64229;52.246;21.054;2023-06-14T06:28:37;100708.00;;;14.30;100.00
30897;BME280;64229;52.246;21.054;2023-06-14T06:31:02;100706.41;;;14.29;100.00
30897;BME280;64229;52.246;21.054;2023-06-14T06:33:28;100729.38;;;14.45;100.00
30897;BME280;64229;52.246;21.054;2023-06-14T06:35:53;100727.72;;;14.55;100.00
30897;BME280;64229;52.246;21.054;2023-06-14T06:38:19;100730.31;;;14.65;100.00
30897;BME280;64229;52.246;21.054;2023-06-14T06:40:44;100718.50;;;14.66;100.00
30897;BME280;64229;52.246;21.054;2023-06-14T06:43:10;100740.91;;;14.85;100.00
30897;BME280;64229;52.246;21.054;2023-06-14T06:45:38;100736.59;;;14.89;100.00
30897;BME280;64229;52.246;21.054;2023-06-14T06:48:04;100737.91;;;14.92;100.00
30897;BME280;64229;52.246;21.054;2023-06-14T06:50:29;100726.91;;;14.88;100.00
30897;BME280;64229;52.246;21.054;2023-06-14T06:52:55;100727.47;;;14.85;100.00
30897;BME280;64229;52.246;21.054;2023-06-14T06:55:22;100726.97;;;14.83;100.00
30897;BME280;64229;52.246;21.054;2023-06-14T06:57:47;100720.00;;;14.77;100.00
30897;BME280;64229;52.246;21.054;2023-06-14T07:00:15;100728.88;;;14.77;100.00
30897;BME280;64229;52.246;21.054;2023-06-14T07:02:40;100682.44;;;14.38;100.00
30897;BME280;64229;52.246;21.054;2023-06-14T07:05:06;100733.78;;;14.70;100.00
30897;BME280;64229;52.246;21.054;2023-06-14T07:07:32;100721.22;;;14.61;100.00
30897;BME280;64229;52.246;21.054;2023-06-14T07:09:57;100735.91;;;14.73;100.00
30897;BME280;64229;52.246;21.054;2023-06-14T07:12:23;100714.72;;;14.67;100.00
30897;BME280;64229;52.246;21.054;2023-06-14T07:14:48;100733.34;;;14.92;100.00
30897;BME280;64229;52.246;21.054;2023-06-14T07:17:14;100736.72;;;15.03;100.00
30897;BME280;64229;52.246;21.054;2023-06-14T07:19:39;100742.00;;;15.13;100.00
30897;BME280;64229;52.246;21.054;2023-06-14T07:22:04;100730.66;;;15.21;100.00
30897;BME280;64229;52.246;21.054;2023-06-14T07:24:30;100732.06;;;15.38;100.00
30897;BME280;64229;52.246;21.054;2023-06-14T07:26:55;100737.06;;;15.49;100.00
30897;BME280;64229;52.246;21.054;2023-06-14T07:29:21;100733.97;;;15.61;100.00
30897;BME280;64229;52.246;21.054;2023-06-14T07:31:46;100734.75;;;15.67;99.53
30897;BME280;64229;52.246;21.054;2023-06-14T07:34:12;100741.09;;;15.76;98.70
30897;BME280;64229;52.246;21.054;2023-06-14T07:36:37;100741.00;;;15.81;98.13
30897;BME280;64229;52.246;21.054;2023-06-14T07:39:03;100735.59;;;15.86;97.66
30897;BME280;64229;52.246;21.054;2023-06-14T07:41:29;100741.94;;;15.95;98.25
30897;BME280;64229;52.246;21.054;2023-06-14T07:43:54;100744.75;;;16.04;97.26
30897;BME280;64229;52.246;21.054;2023-06-14T07:46:20;100745.41;;;16.14;96.88
30897;BME280;64229;52.246;21.054;2023-06-14T07:48:45;100741.72;;;16.29;95.49
30897;BME280;64229;52.246;21.054;2023-06-14T07:51:11;100730.16;;;16.29;94.21
30897;BME280;64229;52.246;21.054;2023-06-14T07:53:36;100743.97;;;16.41;93.62
30897;BME280;64229;52.246;21.054;2023-06-14T07:56:01;100728.47;;;16.33;93.77
30897;BME280;64229;52.246;21.054;2023-06-14T07:58:27;100726.72;;;16.42;93.06
30897;BME280;64229;52.246;21.054;2023-06-14T08:00:53;100750.41;;;16.59;90.97
30897;BME280;64229;52.246;21.054;2023-06-14T08:03:18;100745.84;;;16.59;90.60
30897;BME280;64229;52.246;21.054;2023-06-14T08:05:44;100747.59;;;16.69;91.64
30897;BME280;64229;52.246;21.054;2023-06-14T08:08:10;100750.72;;;16.76;91.37
30897;BME280;64229;52.246;21.054;2023-06-14T08:10:35;100744.38;;;16.86;91.55
30897;BME280;64229;52.246;21.054;2023-06-14T08:13:00;100751.97;;;16.97;91.74
30897;BME280;64229;52.246;21.054;2023-06-14T08:15:26;100747.81;;;17.05;90.96
30897;BME280;64229;52.246;21.054;2023-06-14T08:17:52;100754.44;;;17.13;90.60
30897;BME280;64229;52.246;21.054;2023-06-14T08:20:17;100751.94;;;17.16;90.00
30897;BME280;64229;52.246;21.054;2023-06-14T08:22:43;100753.41;;;17.09;88.62
30897;BME280;64229;52.246;21.054;2023-06-14T08:25:09;100764.50;;;17.07;87.02
30897;BME280;64229;52.246;21.054;2023-06-14T08:27:35;100772.69;;;17.02;87.24
30897;BME280;64229;52.246;21.054;2023-06-14T08:30:00;100765.47;;;16.97;87.10
30897;BME280;64229;52.246;21.054;2023-06-14T08:32:27;100760.56;;;16.99;87.58
30897;BME280;64229;52.246;21.054;2023-06-14T08:34:52;100752.16;;;16.87;85.75
30897;BME280;64229;52.246;21.054;2023-06-14T08:37:17;100746.63;;;16.78;86.16
30897;BME280;64229;52.246;21.054;2023-06-14T08:39:43;100755.34;;;16.89;86.81
30897;BME280;64229;52.246;21.054;2023-06-14T08:42:09;100752.88;;;16.93;86.66
30897;BME280;64229;52.246;21.054;2023-06-14T08:44:35;100751.91;;;17.02;86.24
30897;BME280;64229;52.246;21.054;2023-06-14T08:47:01;100729.53;;;17.02;85.17
30897;BME280;64229;52.246;21.054;2023-06-14T08:49:29;100749.13;;;17.21;84.88
30897;BME280;64229;52.246;21.054;2023-06-14T08:52:00;100748.56;;;17.24;83.81
30897;BME280;64229;52.246;21.054;2023-06-14T08:54:29;100740.16;;;17.26;83.60
30897;BME280;64229;52.246;21.054;2023-06-14T08:57:01;100736.56;;;17.30;82.65
30897;BME280;64229;52.246;21.054;2023-06-14T08:59:28;100739.66;;;17.51;82.21
30897;BME280;64229;52.246;21.054;2023-06-14T09:01:54;100740.81;;;17.78;81.30
30897;BME280;64229;52.246;21.054;2023-06-14T09:04:23;100747.34;;;18.13;80.33
30897;BME280;64229;52.246;21.054;2023-06-14T09:06:49;100744.44;;;18.45;78.51
30897;BME280;64229;52.246;21.054;2023-06-14T09:09:21;100742.69;;;18.86;76.46
30897;BME280;64229;52.246;21.054;2023-06-14T09:11:51;100753.09;;;19.32;74.94
30897;BME280;64229;52.246;21.054;2023-06-14T09:14:23;100746.44;;;19.69;73.59
30897;BME280;64229;52.246;21.054;2023-06-14T09:16:54;100738.47;;;19.73;72.54
30897;BME280;64229;52.246;21.054;2023-06-14T09:19:25;100752.50;;;19.83;71.93
30897;BME280;64229;52.246;21.054;2023-06-14T09:21:52;100754.28;;;19.79;71.88
30897;BME280;64229;52.246;21.054;2023-06-14T09:24:18;100746.75;;;19.68;71.20
30897;BME280;64229;52.246;21.054;2023-06-14T09:26:46;100750.06;;;19.64;71.41
30897;BME280;64229;52.246;21.054;2023-06-14T09:29:12;100745.28;;;19.61;70.62
30897;BME280;64229;52.246;21.054;2023-06-14T09:31:37;100746.97;;;19.49;71.03
30897;BME280;64229;52.246;21.054;2023-06-14T09:34:03;100746.56;;;19.33;71.44
30897;BME280;64229;52.246;21.054;2023-06-14T09:36:31;100750.34;;;19.23;71.33
30897;BME280;64229;52.246;21.054;2023-06-14T09:38:59;100747.63;;;19.15;71.19
30897;BME280;64229;52.246;21.054;2023-06-14T09:43:58;100748.25;;;19.51;68.56
30897;BME280;64229;52.246;21.054;2023-06-14T09:46:27;100753.47;;;19.79;67.22
30897;BME280;64229;52.246;21.054;2023-06-14T09:48:52;100753.00;;;19.94;67.39
30897;BME280;64229;52.246;21.054;2023-06-14T09:51:18;100755.13;;;20.14;67.48
30897;BME280;64229;52.246;21.054;2023-06-14T09:53:46;100743.84;;;20.64;65.10
30897;BME280;64229;52.246;21.054;2023-06-14T09:56:17;100749.50;;;20.97;64.23
30897;BME280;64229;52.246;21.054;2023-06-14T09:58:47;100747.22;;;21.17;63.99
30897;BME280;64229;52.246;21.054;2023-06-14T10:01:15;100748.16;;;21.21;63.37
30897;BME280;64229;52.246;21.054;2023-06-14T10:03:42;100736.88;;;21.10;62.97
30897;BME280;64229;52.246;21.054;2023-06-14T10:06:09;100737.88;;;20.88;62.04
30897;BME280;64229;52.246;21.054;2023-06-14T10:08:36;100741.88;;;20.73;61.62
30897;BME280;64229;52.246;21.054;2023-06-14T10:11:02;100748.94;;;20.57;62.57
30897;BME280;64229;52.246;21.054;2023-06-14T10:13:31;100734.72;;;20.51;61.70
30897;BME280;64229;52.246;21.054;2023-06-14T10:21:21;100728.38;;;21.29;59.22
30897;BME280;64229;52.246;21.054;2023-06-14T10:23:51;100749.41;;;21.70;58.91
30897;BME280;64229;52.246;21.054;2023-06-14T10:26:23;100745.91;;;21.70;56.35
30897;BME280;64229;52.246;21.054;2023-06-14T10:29:09;100740.19;;;21.62;57.42
30897;BME280;64229;52.246;21.054;2023-06-14T10:31:48;100739.44;;;21.53;57.13
30897;BME280;64229;52.246;21.054;2023-06-14T10:34:27;100740.47;;;21.40;56.75
30897;BME280;64229;52.246;21.054;2023-06-14T10:37:14;100741.00;;;21.16;57.16
30897;BME280;64229;52.246;21.054;2023-06-14T10:39:43;100735.75;;;21.02;56.89
30897;BME280;64229;52.246;21.054;2023-06-14T10:42:10;100716.84;;;20.85;56.76
30897;BME280;64229;52.246;21.054;2023-06-14T10:44:39;100736.75;;;20.89;57.34
30897;BME280;64229;52.246;21.054;2023-06-14T10:47:10;100735.66;;;20.82;58.17
30897;BME280;64229;52.246;21.054;2023-06-14T10:49:43;100735.84;;;20.68;58.12
30897;BME280;64229;52.246;21.054;2023-06-14T10:52:14;100745.09;;;20.49;58.36
30897;BME280;64229;52.246;21.054;2023-06-14T10:57:34;100732.81;;;20.35;58.20
30897;BME280;64229;52.246;21.054;2023-06-14T11:00:01;100743.66;;;20.26;57.67
30897;BME280;64229;52.246;21.054;2023-06-14T11:05:52;100725.16;;;20.28;57.42
30897;BME280;64229;52.246;21.054;2023-06-14T11:10:44;100727.72;;;20.33;57.57
30897;BME280;64229;52.246;21.054;2023-06-14T11:13:13;100720.38;;;20.34;57.89
30897;BME280;64229;52.246;21.054;2023-06-14T11:15:44;100721.97;;;20.35;57.95
30897;BME280;64229;52.246;21.054;2023-06-14T11:18:09;100715.75;;;20.34;58.62
30897;BME280;64229;52.246;21.054;2023-06-14T11:20:35;100720.19;;;20.39;58.47
30897;BME280;64229;52.246;21.054;2023-06-14T11:23:02;100719.75;;;20.45;58.18
30897;BME280;64229;52.246;21.054;2023-06-14T11:25:28;100723.59;;;20.53;58.45
30897;BME280;64229;52.246;21.054;2023-06-14T11:27:54;100716.06;;;20.67;57.77
30897;BME280;64229;52.246;21.054;2023-06-14T11:30:20;100717.84;;;20.63;55.91
30897;BME280;64229;52.246;21.054;2023-06-14T11:32:47;100713.03;;;20.60;56.18
30897;BME280;64229;52.246;21.054;2023-06-14T11:35:12;100695.19;;;20.50;55.95
30897;BME280;64229;52.246;21.054;2023-06-14T11:37:39;100723.06;;;20.68;54.99
30897;BME280;64229;52.246;21.054;2023-06-14T11:40:07;100721.03;;;20.65;54.01
30897;BME280;64229;52.246;21.054;2023-06-14T11:42:33;100723.25;;;20.63;54.37
30897;BME280;64229;52.246;21.054;2023-06-14T11:44:59;100694.72;;;20.48;54.40
30897;BME280;64229;52.246;21.054;2023-06-14T11:47:37;100707.47;;;20.57;54.40
30897;BME280;64229;52.246;21.054;2023-06-14T11:50:05;100718.91;;;20.71;53.74
30897;BME280;64229;52.246;21.054;2023-06-14T11:52:31;100706.47;;;20.78;52.95
30897;BME280;64229;52.246;21.054;2023-06-14T11:54:57;100716.00;;;20.93;52.65
30897;BME280;64229;52.246;21.054;2023-06-14T11:57:23;100715.75;;;21.16;52.45
30897;BME280;64229;52.246;21.054;2023-06-14T11:59:49;100716.53;;;21.33;52.25
30897;BME280;64229;52.246;21.054;2023-06-14T12:02:15;100717.09;;;21.48;52.38
30897;BME280;64229;52.246;21.054;2023-06-14T12:04:42;100718.59;;;21.66;50.32
30897;BME280;64229;52.246;21.054;2023-06-14T12:07:11;100715.38;;;21.73;48.76
30897;BME280;64229;52.246;21.054;2023-06-14T12:09:40;100698.19;;;21.60;48.31
30897;BME280;64229;52.246;21.054;2023-06-14T12:12:05;100712.94;;;21.50;48.93
30897;BME280;64229;52.246;21.054;2023-06-14T12:14:31;100706.97;;;21.27;49.51
30897;BME280;64229;52.246;21.054;2023-06-14T12:17:06;100693.00;;;20.99;50.51
30897;BME280;64229;52.246;21.054;2023-06-14T12:19:32;100716.50;;;20.87;51.14
30897;BME280;64229;52.246;21.054;2023-06-14T12:21:59;100694.22;;;20.55;51.17
30897;BME280;64229;52.246;21.054;2023-06-14T12:24:29;100714.94;;;20.60;51.86
30897;BME280;64229;52.246;21.054;2023-06-14T12:26:57;100705.22;;;20.67;51.62
30897;BME280;64229;52.246;21.054;2023-06-14T12:29:24;100709.34;;;20.73;51.29
30897;BME280;64229;52.246;21.054;2023-06-14T12:31:50;100692.13;;;20.69;51.34
30897;BME280;64229;52.246;21.054;2023-06-14T12:34:16;100707.56;;;20.95;51.65
30897;BME280;64229;52.246;21.054;2023-06-14T12:36:41;100694.22;;;21.19;51.96
30897;BME280;64229;52.246;21.054;2023-06-14T12:39:09;100706.75;;;21.41;51.20
30897;BME280;64229;52.246;21.054;2023-06-14T12:41:35;100696.84;;;21.36;50.13
30897;BME280;64229;52.246;21.054;2023-06-14T12:44:01;100687.44;;;21.34;49.15
30897;BME280;64229;52.246;21.054;2023-06-14T12:46:30;100700.06;;;21.39;49.35